Time;durP1;ratioP1;P1;durP2;ratioP2;P2;SDS_P1;SDS_P2;PMS_P1;PMS_P2;Temp;Humidity;BMP_temperature;BMP_pressure;BME280_temperature;BME280_humidity;BME280_pressure;Samples;Min_cycle;Max_cycle;Signal;HPM_P1;HPM_P2
2022/01/22 00:00:32;;;;;;;16.50;3.33;;;7.20;99.90;;;;;;5019827;28;20033;-81
2022/01/22 00:02:58;;;;;;;16.95;2.88;;;7.20;99.90;;;;;;5040032;28;20630;-80
2022/01/22 00:05:23;;;;;;;24.52;3.92;;;7.20;99.90;;;;;;5005498;28;20135;-80
2022/01/22 00:07:50;;;;;;;21.55;3.33;;;7.20;99.90;;;;;;5026876;28;20512;-80
2022/01/22 00:10:19;;;;;;;14.90;2.45;;;7.20;99.90;;;;;;5001810;28;20049;-80
2022/01/22 00:15:20;;;;;;;15.75;3.33;;;7.30;99.90;;;;;;5035621;28;20051;-81
2022/01/22 00:17:48;;;;;;;17.20;3.13;;;7.30;99.90;;;;;;5008468;28;20462;-80
2022/01/22 00:20:20;;;;;;;18.58;2.95;;;7.20;99.90;;;;;;5022252;28;20283;-81
2022/01/22 00:22:46;;;;;;;16.58;2.88;;;7.30;99.90;;;;;;5006426;28;20041;-80
2022/01/22 00:25:14;;;;;;;23.15;2.90;;;7.30;99.90;;;;;;5016323;28;20119;-80
2022/01/22 00:27:42;;;;;;;17.98;3.30;;;7.30;99.90;;;;;;5007400;28;20120;-80
2022/01/22 00:30:11;;;;;;;16.15;3.00;;;7.30;99.90;;;;;;5010400;28;20079;-80
2022/01/22 00:32:37;;;;;;;12.38;2.63;;;7.30;99.90;;;;;;5016107;28;20041;-81
2022/01/22 00:35:04;;;;;;;18.73;2.65;;;7.30;99.90;;;;;;5022809;28;20162;-80
2022/01/22 00:37:30;;;;;;;17.95;3.47;;;7.30;99.90;;;;;;5023551;28;20045;-81
2022/01/22 00:39:56;;;;;;;22.70;2.80;;;7.30;99.90;;;;;;5016894;28;20635;-80
2022/01/22 00:42:25;;;;;;;15.15;2.80;;;7.30;99.90;;;;;;5018129;28;20348;-80
2022/01/22 00:44:51;;;;;;;20.20;3.22;;;7.30;99.90;;;;;;5041105;28;20547;-80
2022/01/22 00:47:20;;;;;;;12.95;2.85;;;7.30;99.90;;;;;;5006678;28;20049;-80
2022/01/22 00:49:47;;;;;;;21.83;3.05;;;7.40;99.90;;;;;;5003630;28;20041;-80
2022/01/22 00:52:13;;;;;;;15.70;2.28;;;7.30;99.90;;;;;;5024247;28;20126;-80
2022/01/22 00:54:38;;;;;;;14.70;2.60;;;7.40;99.90;;;;;;5019578;28;20443;-81
2022/01/22 00:57:04;;;;;;;24.85;3.20;;;7.30;99.90;;;;;;5019637;28;20032;-80
2022/01/22 00:59:31;;;;;;;17.55;3.15;;;7.40;99.90;;;;;;5035476;28;20119;-80
2022/01/22 01:01:57;;;;;;;15.75;2.97;;;7.40;99.90;;;;;;5021042;28;20056;-80
2022/01/22 01:04:22;;;;;;;10.35;2.83;;;7.40;99.90;;;;;;5022136;28;20045;-81
2022/01/22 01:06:48;;;;;;;12.30;2.72;;;7.40;99.90;;;;;;5006046;28;20091;-81
2022/01/22 01:09:14;;;;;;;14.40;2.60;;;7.40;99.90;;;;;;5016130;28;20041;-80
2022/01/22 01:11:52;;;;;;;12.43;2.53;;;7.40;99.90;;;;;;5017082;28;20037;-80
2022/01/22 01:14:25;;;;;;;15.23;2.75;;;7.40;99.90;;;;;;5001268;28;20056;-80
2022/01/22 01:33:18;;;;;;;10.15;2.58;;;7.50;99.90;;;;;;5037378;28;20064;-80
2022/01/22 01:35:44;;;;;;;16.35;2.47;;;7.50;99.90;;;;;;5036114;28;20121;-80
2022/01/22 01:38:10;;;;;;;8.55;2.08;;;7.50;99.90;;;;;;5037300;28;20493;-80
2022/01/22 01:40:40;;;;;;;12.98;2.60;;;7.40;99.90;;;;;;5019618;28;20392;-81
2022/01/22 01:43:12;;;;;;;18.00;2.92;;;7.40;99.90;;;;;;5019375;28;20140;-80
2022/01/22 01:45:38;;;;;;;9.25;1.80;;;7.40;99.90;;;;;;5005549;28;20071;-80
2022/01/22 01:48:11;;;;;;;8.52;1.88;;;7.50;99.90;;;;;;5017049;28;20420;-80
2022/01/22 01:50:40;;;;;;;8.68;2.33;;;7.50;99.90;;;;;;5035349;28;20073;-80
2022/01/22 01:55:49;;;;;;;10.25;2.25;;;7.40;99.90;;;;;;5034751;28;20045;-80
2022/01/22 01:58:16;;;;;;;8.20;2.15;;;7.40;99.90;;;;;;5005670;28;20032;-81
2022/01/22 02:00:42;;;;;;;8.13;2.25;;;7.40;99.90;;;;;;5001516;28;20059;-80
2022/01/22 02:03:09;;;;;;;9.55;1.83;;;7.40;99.90;;;;;;5020059;28;20048;-80
2022/01/22 02:05:38;;;;;;;8.15;1.80;;;7.40;99.90;;;;;;5003321;28;20876;-81
2022/01/22 02:08:05;;;;;;;8.35;2.42;;;7.40;99.90;;;;;;5018794;28;20061;-81
2022/01/22 02:10:34;;;;;;;11.23;2.50;;;7.40;99.90;;;;;;5003672;28;20155;-81
2022/01/22 02:23:59;;;;;;;14.45;2.50;;;7.40;99.90;;;;;;5017388;28;20052;-80
2022/01/22 02:26:25;;;;;;;7.63;1.90;;;7.40;99.90;;;;;;5014123;28;20371;-80
2022/01/22 02:28:52;;;;;;;16.48;3.08;;;7.40;99.90;;;;;;5019441;28;20049;-81
2022/01/22 02:36:57;;;;;;;11.35;1.98;;;7.40;99.90;;;;;;5036793;28;20139;-81
2022/01/22 02:39:14;;;;;;;10.43;2.08;;;7.30;99.90;;;;;;5014236;28;20256;-81
2022/01/22 02:41:49;;;;;;;11.85;2.70;;;7.30;99.90;;;;;;5017958;28;20047;-81
2022/01/22 02:44:31;;;;;;;8.70;2.13;;;7.30;99.90;;;;;;5002180;28;20099;-80
2022/01/22 02:46:57;;;;;;;6.43;1.85;;;7.30;99.90;;;;;;5019536;28;20048;-81
2022/01/22 02:49:22;;;;;;;12.25;2.00;;;7.30;99.90;;;;;;5018544;28;20041;-81
2022/01/22 02:51:48;;;;;;;11.40;2.08;;;7.30;99.90;;;;;;5021659;28;20138;-81
2022/01/22 02:54:14;;;;;;;7.85;2.03;;;7.30;99.90;;;;;;5021643;28;20503;-81
2022/01/22 02:56:40;;;;;;;13.63;2.17;;;7.20;99.90;;;;;;5026163;28;20037;-80
2022/01/22 02:59:05;;;;;;;8.82;1.90;;;7.20;99.90;;;;;;5025650;28;20028;-81
2022/01/22 03:01:31;;;;;;;10.15;1.90;;;7.20;99.90;;;;;;5021153;28;20041;-80
2022/01/22 03:04:00;;;;;;;8.98;1.60;;;7.20;99.90;;;;;;5011856;28;20079;-81
2022/01/22 03:06:26;;;;;;;8.07;1.90;;;7.20;99.90;;;;;;5002683;28;20449;-81
2022/01/22 03:08:52;;;;;;;10.65;2.55;;;7.20;99.90;;;;;;5008697;28;20037;-80
2022/01/22 03:11:23;;;;;;;9.48;2.72;;;7.20;99.90;;;;;;5036137;28;20128;-81
2022/01/22 03:14:45;;;;;;;8.85;2.00;;;7.20;99.90;;;;;;5026496;28;20071;-81
2022/01/22 03:19:58;;;;;;;5.93;1.50;;;7.20;99.90;;;;;;5023818;28;20052;-81
2022/01/22 03:22:25;;;;;;;6.78;2.30;;;7.20;99.90;;;;;;5021953;28;20420;-81
2022/01/22 03:27:35;;;;;;;12.38;1.83;;;7.10;99.90;;;;;;5013264;28;20128;-80
2022/01/22 03:30:03;;;;;;;8.30;1.83;;;7.10;99.90;;;;;;5003227;28;20128;-80
2022/01/22 03:32:35;;;;;;;6.07;1.67;;;7.20;99.90;;;;;;5022450;28;20090;-80
2022/01/22 03:35:13;;;;;;;10.32;1.90;;;7.20;99.90;;;;;;5017384;28;20040;-81
2022/01/22 03:37:40;;;;;;;14.13;2.53;;;7.20;99.90;;;;;;5024668;28;20081;-81
2022/01/22 03:40:08;;;;;;;8.05;2.00;;;7.10;99.90;;;;;;5019165;28;20040;-81
2022/01/22 03:42:35;;;;;;;9.63;2.20;;;7.10;99.90;;;;;;5021695;28;20167;-81
2022/01/22 03:45:02;;;;;;;7.72;1.88;;;7.10;99.90;;;;;;5022147;28;20055;-80
2022/01/22 03:47:28;;;;;;;9.20;2.10;;;7.20;99.90;;;;;;5004973;28;20045;-81
2022/01/22 03:49:54;;;;;;;8.23;2.17;;;7.10;99.90;;;;;;5017931;28;20050;-81
2022/01/22 03:52:20;;;;;;;4.45;1.40;;;7.10;99.90;;;;;;5021969;28;20052;-80
2022/01/22 03:54:46;;;;;;;8.45;2.60;;;7.10;99.90;;;;;;5016774;28;20039;-80
2022/01/22 03:57:12;;;;;;;7.57;1.77;;;7.10;99.90;;;;;;5001822;28;20112;-80
2022/01/22 03:59:37;;;;;;;7.13;2.30;;;7.10;99.90;;;;;;5036676;28;20052;-80
2022/01/22 04:04:46;;;;;;;11.68;2.03;;;7.10;99.90;;;;;;5035411;28;20508;-80
2022/01/22 04:07:52;;;;;;;12.95;3.03;;;7.10;99.90;;;;;;5020618;28;20040;-80
2022/01/22 04:10:10;;;;;;;9.07;2.00;;;7.10;99.90;;;;;;5036933;28;20450;-80
2022/01/22 04:12:57;;;;;;;10.70;2.50;;;7.10;99.90;;;;;;5020327;28;20044;-81
2022/01/22 04:15:26;;;;;;;7.63;2.42;;;7.10;99.90;;;;;;5044337;28;20041;-80
2022/01/22 04:26:29;;;;;;;3.67;1.27;;;7.10;99.90;;;;;;5021238;28;20271;-80
2022/01/22 04:28:57;;;;;;;6.18;1.40;;;7.10;99.90;;;;;;5008739;28;20052;-80
2022/01/22 04:31:23;;;;;;;7.63;1.70;;;7.10;99.90;;;;;;5019360;28;20033;-80
2022/01/22 04:33:50;;;;;;;8.07;1.60;;;7.10;99.90;;;;;;5025731;28;20032;-80
2022/01/22 04:36:16;;;;;;;7.78;1.40;;;7.20;99.90;;;;;;5022775;28;20029;-81
2022/01/22 04:38:41;;;;;;;11.32;1.83;;;7.10;99.90;;;;;;5006495;28;20541;-81
2022/01/22 04:41:07;;;;;;;7.85;1.80;;;7.10;99.90;;;;;;5000915;28;20120;-81
2022/01/22 04:43:36;;;;;;;6.93;2.10;;;7.10;99.90;;;;;;5018305;28;20057;-80
2022/01/22 04:56:43;;;;;;;10.43;1.40;;;7.10;99.90;;;;;;5019204;28;20094;-81
2022/01/22 04:59:08;;;;;;;5.32;1.02;;;7.10;99.90;;;;;;5006586;28;20033;-81
2022/01/22 05:01:34;;;;;;;5.97;1.17;;;7.10;99.90;;;;;;5036247;28;20036;-81
2022/01/22 05:04:00;;;;;;;7.30;1.20;;;7.10;99.90;;;;;;5023818;28;20362;-81
2022/01/22 05:06:26;;;;;;;6.57;1.50;;;7.10;99.90;;;;;;5021267;28;20324;-81
2022/01/22 05:08:52;;;;;;;5.95;1.67;;;7.10;99.90;;;;;;5020161;28;20032;-81
2022/01/22 05:11:19;;;;;;;5.65;1.45;;;7.10;99.90;;;;;;5026227;28;20211;-81
2022/01/22 05:13:46;;;;;;;11.02;1.70;;;7.10;99.90;;;;;;5017447;28;20048;-81
2022/01/22 05:16:12;;;;;;;9.63;1.77;;;7.10;99.90;;;;;;5021244;28;20041;-81
2022/01/22 05:18:48;;;;;;;11.55;1.70;;;7.10;99.90;;;;;;4998654;28;20049;-80
2022/01/22 05:21:16;;;;;;;5.25;1.30;;;7.10;99.90;;;;;;5022182;28;20041;-81
2022/01/22 05:23:45;;;;;;;7.78;1.73;;;7.10;99.90;;;;;;5022700;28;20055;-81
2022/01/22 05:26:32;;;;;;;8.02;1.67;;;7.10;99.90;;;;;;5016677;28;20271;-81
2022/01/22 05:39:39;;;;;;;7.50;1.38;;;7.10;99.90;;;;;;5013552;28;20261;-81
2022/01/22 05:42:09;;;;;;;8.38;1.88;;;7.10;99.90;;;;;;5019263;28;20153;-81
2022/01/22 05:44:35;;;;;;;11.52;1.90;;;7.10;99.90;;;;;;5036294;28;20061;-81
2022/01/22 05:47:06;;;;;;;15.43;2.20;;;7.10;99.90;;;;;;5038866;28;20045;-81
2022/01/22 05:49:37;;;;;;;12.38;2.17;;;7.10;99.90;;;;;;5011269;28;20045;-81
2022/01/22 05:52:05;;;;;;;11.52;1.80;;;7.10;99.90;;;;;;5039598;28;20075;-81
2022/01/22 05:54:50;;;;;;;16.85;2.17;;;7.10;99.90;;;;;;5036335;28;20105;-81
2022/01/22 06:00:17;;;;;;;9.38;2.65;;;7.10;99.90;;;;;;5010258;28;20045;-81
2022/01/22 06:02:43;;;;;;;11.32;2.08;;;7.00;99.90;;;;;;5014194;28;20049;-81
2022/01/22 06:05:09;;;;;;;11.38;1.85;;;7.00;99.90;;;;;;5018959;28;20506;-80
2022/01/22 06:07:34;;;;;;;11.50;1.73;;;7.00;99.90;;;;;;5034062;28;20045;-81
2022/01/22 06:15:00;;;;;;;9.77;2.03;;;7.10;99.90;;;;;;5039194;28;20044;-80
2022/01/22 06:17:26;;;;;;;9.27;2.10;;;7.10;99.90;;;;;;5036469;28;20037;-81
2022/01/22 06:19:51;;;;;;;7.85;1.80;;;7.00;99.90;;;;;;5034579;28;20041;-81
2022/01/22 06:22:17;;;;;;;6.20;1.83;;;7.10;99.90;;;;;;5037410;28;20478;-80
2022/01/22 06:24:43;;;;;;;9.05;2.33;;;7.10;99.90;;;;;;5034847;28;20049;-81
2022/01/22 06:27:08;;;;;;;9.60;1.95;;;7.10;99.90;;;;;;5041598;28;20120;-80
2022/01/22 06:29:34;;;;;;;9.38;2.70;;;7.00;99.90;;;;;;5033961;28;20055;-81
2022/01/22 06:32:00;;;;;;;8.23;2.22;;;7.00;99.90;;;;;;5038285;28;20040;-81
2022/01/22 06:34:25;;;;;;;8.10;1.95;;;7.10;99.90;;;;;;5036804;28;20041;-81
2022/01/22 06:36:51;;;;;;;12.55;2.13;;;7.00;99.90;;;;;;5040284;28;20041;-81
2022/01/22 06:39:19;;;;;;;6.35;2.10;;;7.10;99.90;;;;;;5035531;28;20144;-81
2022/01/22 06:41:45;;;;;;;12.43;2.72;;;7.00;99.90;;;;;;5033301;28;20388;-80
2022/01/22 06:44:23;;;;;;;8.77;2.50;;;7.10;99.90;;;;;;5005913;28;20527;-80
2022/01/22 06:46:55;;;;;;;6.53;1.88;;;7.10;99.90;;;;;;5016799;28;20554;-80
2022/01/22 06:49:21;;;;;;;4.35;1.90;;;7.10;99.90;;;;;;5002246;28;20084;-81
2022/01/22 06:51:47;;;;;;;7.63;2.10;;;7.00;99.90;;;;;;5003976;28;20069;-81
2022/01/22 06:54:14;;;;;;;8.73;1.77;;;7.00;99.90;;;;;;5002732;28;20029;-81
2022/01/22 06:56:40;;;;;;;6.88;1.90;;;6.90;99.90;;;;;;4984078;28;20077;-81
2022/01/22 06:59:11;;;;;;;7.55;2.15;;;7.00;99.90;;;;;;4995444;28;20159;-80
2022/01/22 07:01:37;;;;;;;11.68;2.28;;;6.90;99.90;;;;;;5016999;28;20058;-81
2022/01/22 07:04:03;;;;;;;7.80;2.10;;;6.90;99.90;;;;;;5000139;28;20033;-80
2022/01/22 07:06:29;;;;;;;6.95;2.05;;;7.00;99.90;;;;;;5003116;28;20037;-81
2022/01/22 07:08:55;;;;;;;7.03;2.47;;;6.90;99.90;;;;;;5002702;28;20049;-81
2022/01/22 07:11:21;;;;;;;11.13;2.47;;;7.00;99.90;;;;;;4983896;28;20053;-81
2022/01/22 07:13:47;;;;;;;7.65;2.40;;;6.90;99.90;;;;;;5002597;28;20052;-81
2022/01/22 07:16:13;;;;;;;11.15;2.90;;;6.90;99.90;;;;;;5001404;28;20109;-80
2022/01/22 07:18:39;;;;;;;10.63;2.17;;;7.00;99.90;;;;;;4983198;28;20038;-81
2022/01/22 07:21:23;;;;;;;9.55;2.40;;;6.90;99.90;;;;;;4993223;28;20059;-81
2022/01/22 07:26:15;;;;;;;5.60;1.77;;;6.90;99.90;;;;;;5001089;28;20483;-80
2022/01/22 07:28:42;;;;;;;7.50;2.22;;;6.90;99.90;;;;;;4984123;28;20057;-80
2022/01/22 07:31:09;;;;;;;7.97;2.00;;;6.90;99.90;;;;;;4985753;28;20041;-80
2022/01/22 07:33:35;;;;;;;6.03;2.17;;;6.90;99.90;;;;;;5002922;28;20435;-80
2022/01/22 07:36:02;;;;;;;4.45;2.00;;;6.90;99.90;;;;;;5004443;28;20037;-81
2022/01/22 07:38:27;;;;;;;6.13;2.08;;;6.80;99.90;;;;;;5000900;28;20143;-80
2022/01/22 07:40:53;;;;;;;6.55;1.88;;;6.80;99.90;;;;;;5001672;28;20045;-80
2022/01/22 07:43:19;;;;;;;8.18;1.90;;;6.90;99.90;;;;;;5009405;28;20364;-80
2022/01/22 07:45:44;;;;;;;5.53;1.88;;;6.80;99.90;;;;;;5007769;28;20499;-80
2022/01/22 07:48:16;;;;;;;8.75;2.22;;;6.80;99.90;;;;;;5022793;28;20503;-81
2022/01/22 07:50:42;;;;;;;5.85;1.73;;;6.80;99.90;;;;;;5006434;28;20049;-80
2022/01/22 07:53:08;;;;;;;6.90;1.83;;;6.80;99.90;;;;;;5021711;28;20346;-80
2022/01/22 07:55:34;;;;;;;9.52;2.22;;;6.80;99.90;;;;;;5022241;28;20486;-80
2022/01/22 07:57:59;;;;;;;7.05;2.05;;;6.80;99.90;;;;;;5027601;28;20041;-81
2022/01/22 08:00:25;;;;;;;7.65;2.22;;;6.80;99.90;;;;;;5005966;28;20416;-80
2022/01/22 08:02:51;;;;;;;7.10;2.28;;;6.80;99.90;;;;;;5005925;28;20041;-80
2022/01/22 08:05:16;;;;;;;5.63;2.03;;;6.80;99.90;;;;;;5003972;28;20060;-80
2022/01/22 08:07:44;;;;;;;3.78;1.52;;;6.70;99.90;;;;;;4991515;28;20041;-80
2022/01/22 08:10:12;;;;;;;5.55;1.63;;;6.70;99.90;;;;;;5017908;28;20431;-80
2022/01/22 08:12:39;;;;;;;5.75;1.67;;;6.80;99.90;;;;;;5023338;28;20048;-80
2022/01/22 08:15:10;;;;;;;6.68;1.73;;;6.70;99.90;;;;;;5018666;28;20036;-81
2022/01/22 08:17:36;;;;;;;6.32;1.60;;;6.70;99.90;;;;;;5019688;28;20037;-81
2022/01/22 08:20:03;;;;;;;7.70;1.60;;;6.70;99.90;;;;;;5022622;28;20041;-81
2022/01/22 08:22:29;;;;;;;5.38;1.77;;;6.70;99.90;;;;;;5004169;28;20048;-81
2022/01/22 08:24:57;;;;;;;6.13;1.60;;;6.80;99.90;;;;;;5019203;28;20049;-80
2022/01/22 08:29:58;;;;;;;5.13;1.52;;;6.70;99.90;;;;;;5039068;28;20251;-80
2022/01/22 08:32:57;;;;;;;5.97;1.67;;;6.80;99.90;;;;;;5009656;28;20037;-80
2022/01/22 08:38:03;;;;;;;9.13;1.70;;;6.80;99.90;;;;;;5042042;28;20071;-81
2022/01/22 08:40:28;;;;;;;9.07;1.60;;;6.70;99.90;;;;;;5021563;28;20048;-80
2022/01/22 08:42:54;;;;;;;7.05;1.60;;;6.80;99.90;;;;;;5022577;28;20057;-80
2022/01/22 08:45:20;;;;;;;5.88;1.67;;;6.80;99.90;;;;;;5022751;28;20132;-81
2022/01/22 08:47:45;;;;;;;5.78;1.38;;;6.80;99.90;;;;;;5019426;28;20452;-80
2022/01/22 08:50:11;;;;;;;10.65;1.50;;;6.80;99.90;;;;;;5018705;28;20042;-81
2022/01/22 08:52:37;;;;;;;5.82;1.40;;;6.80;99.90;;;;;;5004662;28;20041;-81
2022/01/22 08:55:04;;;;;;;6.07;1.42;;;6.80;99.90;;;;;;5016040;28;20119;-81
2022/01/22 08:57:30;;;;;;;8.48;1.42;;;6.80;99.90;;;;;;5037580;28;20067;-80
2022/01/22 08:59:55;;;;;;;9.90;1.58;;;6.80;99.90;;;;;;5018813;28;20045;-81
2022/01/22 09:02:21;;;;;;;8.77;2.63;;;6.70;99.90;;;;;;5020385;28;20044;-80
2022/01/22 09:04:47;;;;;;;6.95;1.55;;;6.80;99.90;;;;;;5002692;28;20511;-81
2022/01/22 09:07:13;;;;;;;10.73;1.90;;;6.80;99.90;;;;;;5020561;28;20045;-80
2022/01/22 09:09:39;;;;;;;7.05;1.58;;;6.80;99.90;;;;;;5018901;28;20481;-81
2022/01/22 09:12:09;;;;;;;6.07;1.80;;;6.80;99.90;;;;;;5018686;28;20049;-80
2022/01/22 09:14:35;;;;;;;6.20;1.70;;;6.80;99.90;;;;;;5021286;28;20037;-81
2022/01/22 09:17:02;;;;;;;8.57;1.90;;;6.90;99.90;;;;;;5038544;28;20113;-80
2022/01/22 09:19:33;;;;;;;11.27;1.70;;;6.90;99.90;;;;;;5020790;28;20044;-81
2022/01/22 09:22:04;;;;;;;8.35;1.98;;;6.90;99.90;;;;;;5036325;28;20048;-81
2022/01/22 09:24:33;;;;;;;6.82;1.60;;;6.90;99.90;;;;;;5021273;28;20039;-80
2022/01/22 09:27:03;;;;;;;10.43;1.92;;;6.90;99.90;;;;;;5017756;28;20043;-80
2022/01/22 09:29:29;;;;;;;9.00;2.15;;;6.90;99.90;;;;;;5024737;28;20714;-81
2022/01/22 09:31:55;;;;;;;11.32;2.08;;;6.90;99.90;;;;;;5006921;28;20068;-81
2022/01/22 09:34:20;;;;;;;8.70;1.85;;;6.90;99.90;;;;;;5020348;28;20033;-80
2022/01/22 09:36:46;;;;;;;10.65;1.77;;;6.90;99.90;;;;;;5021237;28;20041;-80
2022/01/22 09:39:12;;;;;;;4.65;2.00;;;6.90;99.90;;;;;;5022857;28;20032;-80
2022/01/22 09:41:38;;;;;;;14.00;2.22;;;6.90;99.90;;;;;;5002583;28;20536;-81
2022/01/22 09:44:05;;;;;;;10.63;2.15;;;6.90;99.90;;;;;;5032274;28;20075;-81
2022/01/22 09:46:32;;;;;;;6.63;2.10;;;6.90;99.90;;;;;;5018648;28;20436;-81
2022/01/22 09:48:57;;;;;;;8.25;1.98;;;6.90;99.90;;;;;;5012123;28;20044;-80
2022/01/22 09:51:24;;;;;;;9.55;2.20;;;6.90;99.90;;;;;;5019061;28;20037;-80
2022/01/22 09:53:52;;;;;;;9.80;2.20;;;7.00;99.90;;;;;;5018274;28;20045;-81
2022/01/22 09:56:20;;;;;;;12.02;2.20;;;7.00;99.90;;;;;;5019286;28;20487;-81
2022/01/22 09:58:46;;;;;;;16.08;2.25;;;7.00;99.90;;;;;;5036256;28;20427;-81
2022/01/22 10:01:45;;;;;;;12.63;2.95;;;7.00;99.90;;;;;;5013674;28;20397;-81
2022/01/22 10:04:10;;;;;;;12.30;2.90;;;7.10;99.90;;;;;;4958242;28;20053;-80
2022/01/22 10:06:49;;;;;;;12.20;2.72;;;7.20;99.90;;;;;;5013785;28;20045;-80
2022/01/22 10:09:25;;;;;;;13.68;2.85;;;7.20;99.90;;;;;;5019520;28;20126;-81
2022/01/22 10:12:09;;;;;;;11.32;2.88;;;7.20;99.90;;;;;;5035720;28;20061;-80
2022/01/22 10:14:34;;;;;;;11.75;2.72;;;7.30;99.90;;;;;;5017006;28;20040;-81
2022/01/22 10:17:00;;;;;;;10.25;2.90;;;7.30;99.90;;;;;;5008092;28;20043;-81
2022/01/22 10:19:26;;;;;;;9.65;3.75;;;7.30;99.90;;;;;;5002221;28;20094;-81
2022/01/22 10:21:56;;;;;;;13.07;3.08;;;7.30;99.90;;;;;;5027773;28;20169;-81
2022/01/22 10:24:28;;;;;;;8.95;3.00;;;7.40;99.90;;;;;;5020651;28;20048;-81
2022/01/22 10:29:57;;;;;;;10.50;2.72;;;7.30;99.90;;;;;;5013548;28;20045;-81
2022/01/22 10:33:18;;;;;;;13.55;3.55;;;7.30;99.90;;;;;;5016501;28;20044;-81
2022/01/22 10:35:27;;;;;;;12.93;3.47;;;7.20;99.90;;;;;;4997769;28;20493;-81
2022/01/22 10:37:58;;;;;;;16.02;3.10;;;7.30;99.90;;;;;;5017630;28;20037;-81
2022/01/22 10:40:28;;;;;;;13.90;3.35;;;7.40;99.90;;;;;;5019133;28;20068;-81
2022/01/22 10:43:17;;;;;;;11.18;3.20;;;7.40;99.90;;;;;;5024238;28;20052;-80
2022/01/22 10:46:01;;;;;;;16.10;3.35;;;7.30;99.90;;;;;;5015922;28;20125;-81
2022/01/22 10:48:27;;;;;;;11.82;3.00;;;7.30;99.90;;;;;;5035123;28;20401;-81
2022/01/22 10:51:09;;;;;;;13.93;3.42;;;7.30;99.90;;;;;;5036613;28;20500;-81
2022/01/22 10:53:48;;;;;;;9.82;3.33;;;7.30;99.90;;;;;;5035411;28;20046;-81
2022/01/22 10:56:17;;;;;;;13.75;3.42;;;7.30;99.90;;;;;;5017056;28;20163;-81
2022/01/22 10:59:07;;;;;;;8.25;3.00;;;7.30;99.90;;;;;;5018749;28;20045;-81
2022/01/22 11:01:54;;;;;;;12.40;3.00;;;7.20;99.90;;;;;;5017646;28;20439;-81
2022/01/22 11:04:34;;;;;;;18.30;3.90;;;7.30;99.90;;;;;;5021124;28;20351;-81
2022/01/22 11:07:03;;;;;;;15.20;3.38;;;7.30;99.90;;;;;;5019260;28;20116;-81
2022/01/22 11:09:30;;;;;;;11.50;3.53;;;7.30;99.90;;;;;;4998311;28;20045;-81
2022/01/22 11:12:01;;;;;;;9.18;3.08;;;7.20;99.90;;;;;;5018900;28;20030;-81
2022/01/22 11:14:37;;;;;;;12.00;3.50;;;7.30;99.90;;;;;;4995671;28;20293;-80
2022/01/22 11:17:06;;;;;;;14.10;3.78;;;7.30;99.90;;;;;;5020967;28;20496;-81
2022/01/22 11:19:33;;;;;;;14.73;3.85;;;7.40;99.90;;;;;;5020876;28;20041;-80
2022/01/22 11:22:08;;;;;;;15.30;3.67;;;7.40;99.90;;;;;;5016327;28;20055;-81
2022/01/22 11:24:38;;;;;;;14.73;3.58;;;7.30;99.90;;;;;;5028421;28;20399;-80
2022/01/22 11:27:06;;;;;;;19.10;4.25;;;7.30;99.90;;;;;;5036597;28;20535;-81
2022/01/22 11:29:48;;;;;;;16.83;4.00;;;7.30;99.90;;;;;;5020963;28;20087;-80
2022/01/22 11:32:17;;;;;;;14.55;3.83;;;7.30;99.90;;;;;;5028100;28;20036;-81
2022/01/22 11:34:44;;;;;;;13.63;4.25;;;7.40;99.90;;;;;;5022476;28;20769;-81
2022/01/22 11:37:17;;;;;;;17.80;4.20;;;7.40;99.90;;;;;;5029146;28;20369;-81
2022/01/22 11:39:43;;;;;;;14.95;4.00;;;7.40;99.90;;;;;;5007342;28;20060;-81
2022/01/22 11:42:09;;;;;;;14.10;3.75;;;7.40;99.90;;;;;;5007011;28;20064;-81
2022/01/22 11:44:50;;;;;;;15.23;4.35;;;7.40;99.90;;;;;;5038293;28;20045;-81
2022/01/22 11:47:17;;;;;;;19.73;3.95;;;7.40;99.90;;;;;;5022631;28;20782;-81
2022/01/22 11:50:07;;;;;;;13.40;3.80;;;7.40;99.90;;;;;;5003184;28;20057;-81
2022/01/22 11:52:38;;;;;;;11.57;3.85;;;7.40;99.90;;;;;;5012055;28;20121;-81
2022/01/22 11:55:11;;;;;;;12.77;3.70;;;7.50;99.90;;;;;;5017664;28;20455;-81
2022/01/22 11:57:37;;;;;;;12.52;4.35;;;7.50;99.90;;;;;;5024627;28;20397;-81
2022/01/22 12:00:22;;;;;;;11.23;3.70;;;7.40;99.90;;;;;;5018735;28;20430;-81
2022/01/22 12:03:03;;;;;;;15.80;3.83;;;7.40;99.90;;;;;;5020382;28;20179;-81
2022/01/22 12:05:29;;;;;;;11.70;3.40;;;7.50;99.90;;;;;;5020024;28;20101;-81
2022/01/22 12:08:00;;;;;;;10.30;3.58;;;7.50;99.90;;;;;;5019797;28;20133;-80
2022/01/22 12:10:42;;;;;;;14.05;3.80;;;7.50;99.90;;;;;;5038479;28;20047;-81
2022/01/22 12:16:40;;;;;;;14.80;4.10;;;7.40;99.90;;;;;;5021699;28;20055;-81
2022/01/22 12:19:41;;;;;;;14.27;4.35;;;7.40;99.90;;;;;;5020908;28;20035;-81
2022/01/22 12:22:30;;;;;;;12.70;3.90;;;7.40;99.90;;;;;;5020389;28;20044;-81
2022/01/22 12:24:55;;;;;;;14.38;4.60;;;7.50;99.90;;;;;;5008714;28;20098;-81
2022/01/22 12:27:46;;;;;;;15.00;4.95;;;7.40;99.90;;;;;;5021190;28;20049;-81
2022/01/22 12:30:14;;;;;;;13.68;4.45;;;7.50;99.90;;;;;;5021890;28;20036;-81
2022/01/22 12:32:51;;;;;;;12.40;4.53;;;7.40;99.90;;;;;;5033345;28;20034;-81
2022/01/22 12:35:31;;;;;;;12.75;4.47;;;7.30;99.90;;;;;;5021614;28;20416;-81
2022/01/22 12:38:29;;;;;;;13.23;4.43;;;7.40;99.90;;;;;;5021517;28;20117;-81
2022/01/22 12:44:33;;;;;;;16.73;4.57;;;7.30;99.90;;;;;;4989864;28;20115;-80
2022/01/22 12:47:09;;;;;;;10.02;4.15;;;7.30;99.90;;;;;;5004462;28;20050;-80
2022/01/22 12:49:36;;;;;;;14.38;4.50;;;7.30;99.90;;;;;;5018840;28;20138;-81
2022/01/22 12:52:07;;;;;;;17.88;4.20;;;7.30;99.90;;;;;;5022275;28;20174;-81
2022/01/22 12:54:42;;;;;;;14.40;4.38;;;7.30;99.90;;;;;;5000602;28;20065;-81
2022/01/22 12:57:13;;;;;;;14.73;4.00;;;7.30;99.90;;;;;;5002724;28;20113;-81
2022/01/22 13:00:09;;;;;;;10.15;3.40;;;7.30;99.90;;;;;;5004149;28;20060;-80
2022/01/22 13:02:39;;;;;;;13.35;4.38;;;7.40;99.90;;;;;;5002123;28;20056;-81
2022/01/22 13:05:06;;;;;;;14.00;4.32;;;7.50;99.90;;;;;;4982178;28;20042;-80
2022/01/22 13:07:46;;;;;;;14.52;4.07;;;7.50;99.90;;;;;;5002953;28;20084;-80
2022/01/22 13:10:13;;;;;;;14.27;3.65;;;7.40;99.90;;;;;;5001238;28;20119;-80
2022/01/22 13:12:43;;;;;;;10.32;3.65;;;7.40;99.90;;;;;;4998737;28;20045;-81
2022/01/22 13:15:11;;;;;;;11.63;4.00;;;7.40;99.90;;;;;;5011416;28;20065;-81
2022/01/22 13:17:39;;;;;;;9.57;3.67;;;7.40;99.90;;;;;;5000334;28;20053;-81
2022/01/22 13:20:06;;;;;;;13.30;3.97;;;7.50;99.90;;;;;;4999377;28;20128;-81
2022/01/22 13:22:36;;;;;;;11.77;3.33;;;7.40;99.90;;;;;;5003429;28;20053;-80
2022/01/22 13:25:11;;;;;;;9.60;4.38;;;7.40;99.90;;;;;;4976633;28;20046;-80
2022/01/22 13:27:40;;;;;;;13.35;3.83;;;7.40;99.90;;;;;;5014871;28;20030;-81
2022/01/22 13:30:09;;;;;;;14.70;5.25;;;7.50;99.90;;;;;;4999651;28;20532;-80
2022/01/22 13:45:05;;;;;;;9.95;3.05;;;7.30;99.90;;;;;;5003217;28;20314;-82
2022/01/22 13:49:14;;;;;;;6.95;1.67;;;7.10;99.90;;;;;;4996589;28;20056;-81
2022/01/22 13:51:40;;;;;;;7.38;1.90;;;7.10;99.90;;;;;;4997967;28;20061;-81
2022/01/22 13:54:06;;;;;;;7.00;1.60;;;7.00;99.90;;;;;;4991809;28;20048;-81
2022/01/22 13:56:44;;;;;;;5.00;1.67;;;7.00;99.90;;;;;;5000502;28;20040;-81
2022/01/22 13:59:18;;;;;;;10.20;2.05;;;7.10;99.90;;;;;;5022220;28;20124;-81
2022/01/22 14:04:46;;;;;;;8.65;1.80;;;7.10;99.90;;;;;;4986982;28;20042;-81
2022/01/22 14:07:24;;;;;;;7.78;2.20;;;7.10;99.90;;;;;;4999407;28;20116;-81
2022/01/22 14:09:56;;;;;;;10.88;2.10;;;7.10;99.90;;;;;;4999345;28;20059;-81
2022/01/22 14:12:25;;;;;;;8.48;2.20;;;7.10;99.90;;;;;;4988917;28;20061;-81
2022/01/22 14:14:55;;;;;;;7.03;2.60;;;7.10;99.90;;;;;;4998821;28;20095;-81
2022/01/22 14:17:24;;;;;;;11.65;2.90;;;7.10;99.90;;;;;;4996452;28;20295;-81
2022/01/22 14:20:09;;;;;;;7.43;2.47;;;7.00;99.90;;;;;;4997063;28;20116;-81
2022/01/22 14:22:56;;;;;;;9.10;2.42;;;7.00;99.90;;;;;;4995447;28;20457;-81
2022/01/22 14:25:22;;;;;;;11.52;2.70;;;7.00;99.90;;;;;;5001814;28;20045;-81
2022/01/22 14:28:06;;;;;;;10.10;3.00;;;7.00;99.90;;;;;;5000631;28;20044;-81
2022/01/22 14:30:38;;;;;;;9.07;2.63;;;7.00;99.90;;;;;;4987694;28;20355;-81
2022/01/22 14:33:04;;;;;;;10.25;2.30;;;7.00;99.90;;;;;;5000487;28;20144;-81
2022/01/22 14:35:31;;;;;;;9.38;2.55;;;7.00;99.90;;;;;;5004471;28;20329;-81
2022/01/22 14:37:59;;;;;;;7.03;2.38;;;7.00;99.90;;;;;;5005229;28;20076;-81
2022/01/22 14:45:59;;;;;;;10.20;2.28;;;7.00;99.90;;;;;;5040853;28;20481;-81
2022/01/22 14:48:26;;;;;;;14.02;2.58;;;7.00;99.90;;;;;;5017429;28;20088;-81
2022/01/22 14:50:52;;;;;;;9.52;2.17;;;7.00;99.90;;;;;;5037838;28;20041;-81
2022/01/22 14:53:19;;;;;;;9.13;2.15;;;7.00;99.90;;;;;;5007300;28;20481;-81
2022/01/22 14:55:50;;;;;;;6.97;1.92;;;7.00;99.90;;;;;;5006410;28;20215;-81
2022/01/22 14:58:16;;;;;;;12.80;2.72;;;7.00;99.90;;;;;;5024018;28;20036;-81
2022/01/22 15:00:42;;;;;;;6.65;2.08;;;7.00;99.90;;;;;;5006714;28;20049;-81
2022/01/22 15:03:08;;;;;;;7.18;1.85;;;7.00;99.90;;;;;;5008124;28;20045;-81
2022/01/22 15:05:34;;;;;;;5.75;1.80;;;6.90;99.90;;;;;;5007997;28;20053;-81
2022/01/22 15:08:00;;;;;;;5.97;1.60;;;7.00;99.90;;;;;;5009873;28;20119;-81
2022/01/22 15:10:26;;;;;;;5.10;1.45;;;7.00;99.90;;;;;;5021156;28;20067;-81